sensor_id;sensor_type;location;lat;lon;timestamp;temperature;humidity
5842;DHT22;2947;52.276;9.946;2022-12-26T00:00:52;10.90;99.90
5842;DHT22;2947;52.276;9.946;2022-12-26T00:03:21;10.90;99.90
5842;DHT22;2947;52.276;9.946;2022-12-26T00:05:47;10.90;99.90
5842;DHT22;2947;52.276;9.946;2022-12-26T00:08:13;10.90;99.90
5842;DHT22;2947;52.276;9.946;2022-12-26T00:10:39;11.00;99.90
5842;DHT22;2947;52.276;9.946;2022-12-26T00:13:04;10.90;99.90
5842;DHT22;2947;52.276;9.946;2022-12-26T00:15:30;10.90;99.90
5842;DHT22;2947;52.276;9.946;2022-12-26T00:17:56;10.90;99.90
5842;DHT22;2947;52.276;9.946;2022-12-26T00:20:22;10.90;99.90
5842;DHT22;2947;52.276;9.946;2022-12-26T00:22:47;10.90;99.90
5842;DHT22;2947;52.276;9.946;2022-12-26T00:25:13;10.90;99.90
5842;DHT22;2947;52.276;9.946;2022-12-26T00:27:39;10.90;99.90
5842;DHT22;2947;52.276;9.946;2022-12-26T00:30:05;10.80;99.90
5842;DHT22;2947;52.276;9.946;2022-12-26T00:32:31;10.80;99.90
5842;DHT22;2947;52.276;9.946;2022-12-26T00:34:57;10.80;99.90
5842;DHT22;2947;52.276;9.946;2022-12-26T00:37:22;10.80;99.90
5842;DHT22;2947;52.276;9.946;2022-12-26T00:39:48;10.70;99.90
5842;DHT22;2947;52.276;9.946;2022-12-26T00:42:14;10.70;99.90
5842;DHT22;2947;52.276;9.946;2022-12-26T00:44:39;10.80;99.90
5842;DHT22;2947;52.276;9.946;2022-12-26T00:47:05;10.70;99.90
5842;DHT22;2947;52.276;9.946;2022-12-26T00:49:31;10.70;99.90
5842;DHT22;2947;52.276;9.946;2022-12-26T00:51:56;10.80;99.90
5842;DHT22;2947;52.276;9.946;2022-12-26T00:54:22;10.70;99.90
5842;DHT22;2947;52.276;9.946;2022-12-26T00:56:48;10.70;99.90
5842;DHT22;2947;52.276;9.946;2022-12-26T00:59:13;10.80;99.90
5842;DHT22;2947;52.276;9.946;2022-12-26T01:01:39;10.70;99.90
5842;DHT22;2947;52.276;9.946;2022-12-26T01:04:05;10.80;99.90
5842;DHT22;2947;52.276;9.946;2022-12-26T01:06:30;10.80;99.90
5842;DHT22;2947;52.276;9.946;2022-12-26T01:08:56;10.80;99.90
5842;DHT22;2947;52.276;9.946;2022-12-26T01:11:23;10.80;99.90
5842;DHT22;2947;52.276;9.946;2022-12-26T01:16:44;10.80;99.90
5842;DHT22;2947;52.276;9.946;2022-12-26T01:19:11;10.80;99.90
5842;DHT22;2947;52.276;9.946;2022-12-26T01:21:38;10.80;99.90
5842;DHT22;2947;52.276;9.946;2022-12-26T01:24:04;10.80;99.90
5842;DHT22;2947;52.276;9.946;2022-12-26T01:26:31;10.80;99.90
5842;DHT22;2947;52.276;9.946;2022-12-26T01:28:56;10.80;99.90
5842;DHT22;2947;52.276;9.946;2022-12-26T01:31:25;10.90;99.90
5842;DHT22;2947;52.276;9.946;2022-12-26T01:33:50;10.90;99.90
5842;DHT22;2947;52.276;9.946;2022-12-26T01:36:16;10.80;99.90
5842;DHT22;2947;52.276;9.946;2022-12-26T01:38:43;10.80;99.90
5842;DHT22;2947;52.276;9.946;2022-12-26T01:41:09;10.80;99.90
5842;DHT22;2947;52.276;9.946;2022-12-26T01:46:13;10.80;99.90
5842;DHT22;2947;52.276;9.946;2022-12-26T01:48:39;10.80;99.90
5842;DHT22;2947;52.276;9.946;2022-12-26T01:51:05;10.80;99.90
5842;DHT22;2947;52.276;9.946;2022-12-26T01:53:33;10.80;99.90
5842;DHT22;2947;52.276;9.946;2022-12-26T01:56:08;10.80;99.90
5842;DHT22;2947;52.276;9.946;2022-12-26T01:59:10;10.80;99.90
5842;DHT22;2947;52.276;9.946;2022-12-26T02:01:41;10.80;99.90
5842;DHT22;2947;52.276;9.946;2022-12-26T02:04:12;10.80;99.90
5842;DHT22;2947;52.276;9.946;2022-12-26T02:07:00;10.80;99.90
5842;DHT22;2947;52.276;9.946;2022-12-26T02:09:27;10.80;99.90
5842;DHT22;2947;52.276;9.946;2022-12-26T02:11:58;10.90;99.90
5842;DHT22;2947;52.276;9.946;2022-12-26T02:14:27;10.80;99.90
5842;DHT22;2947;52.276;9.946;2022-12-26T02:16:52;10.80;99.90
5842;DHT22;2947;52.276;9.946;2022-12-26T02:19:35;10.80;99.90
5842;DHT22;2947;52.276;9.946;2022-12-26T02:35:24;11.00;99.90
5842;DHT22;2947;52.276;9.946;2022-12-26T02:38:24;11.00;99.90
5842;DHT22;2947;52.276;9.946;2022-12-26T02:44:23;10.90;99.90
5842;DHT22;2947;52.276;9.946;2022-12-26T02:50:20;10.90;99.90
5842;DHT22;2947;52.276;9.946;2022-12-26T02:56:50;10.90;99.90
5842;DHT22;2947;52.276;9.946;2022-12-26T02:59:47;10.90;99.90
5842;DHT22;2947;52.276;9.946;2022-12-26T03:02:58;10.90;99.90
5842;DHT22;2947;52.276;9.946;2022-12-26T03:09:06;10.90;99.90
5842;DHT22;2947;52.276;9.946;2022-12-26T03:12:00;10.90;99.90
5842;DHT22;2947;52.276;9.946;2022-12-26T03:14:51;10.90;99.90
5842;DHT22;2947;52.276;9.946;2022-12-26T03:18:00;10.90;99.90
5842;DHT22;2947;52.276;9.946;2022-12-26T03:20:30;10.80;99.90
5842;DHT22;2947;52.276;9.946;2022-12-26T03:23:09;10.80;99.90
5842;DHT22;2947;52.276;9.946;2022-12-26T03:26:11;10.80;99.90
5842;DHT22;2947;52.276;9.946;2022-12-26T03:29:05;10.70;99.90
5842;DHT22;2947;52.276;9.946;2022-12-26T03:31:51;10.70;99.90
5842;DHT22;2947;52.276;9.946;2022-12-26T03:34:17;10.70;99.90
5842;DHT22;2947;52.276;9.946;2022-12-26T03:37:22;10.70;99.90
5842;DHT22;2947;52.276;9.946;2022-12-26T03:43:45;10.70;99.90
5842;DHT22;2947;52.276;9.946;2022-12-26T03:50:07;10.60;99.90
5842;DHT22;2947;52.276;9.946;2022-12-26T03:53:47;10.60;99.90
5842;DHT22;2947;52.276;9.946;2022-12-26T03:56:49;10.60;99.90
5842;DHT22;2947;52.276;9.946;2022-12-26T03:59:50;10.60;99.90
5842;DHT22;2947;52.276;9.946;2022-12-26T04:02:40;10.60;99.90
5842;DHT22;2947;52.276;9.946;2022-12-26T04:05:27;10.60;99.90
5842;DHT22;2947;52.276;9.946;2022-12-26T04:08:24;10.60;99.90
5842;DHT22;2947;52.276;9.946;2022-12-26T04:11:15;10.60;99.90
5842;DHT22;2947;52.276;9.946;2022-12-26T04:20:38;10.60;99.90
5842;DHT22;2947;52.276;9.946;2022-12-26T04:23:39;10.60;99.90
5842;DHT22;2947;52.276;9.946;2022-12-26T04:26:33;10.60;99.90
5842;DHT22;2947;52.276;9.946;2022-12-26T04:29:21;10.60;99.90
5842;DHT22;2947;52.276;9.946;2022-12-26T04:35:21;10.60;99.90
5842;DHT22;2947;52.276;9.946;2022-12-26T04:38:15;10.60;99.90
5842;DHT22;2947;52.276;9.946;2022-12-26T04:41:10;10.60;99.90
5842;DHT22;2947;52.276;9.946;2022-12-26T04:43:57;10.50;99.90
5842;DHT22;2947;52.276;9.946;2022-12-26T04:46:31;10.50;99.90
5842;DHT22;2947;52.276;9.946;2022-12-26T04:48:59;10.50;99.90
5842;DHT22;2947;52.276;9.946;2022-12-26T04:51:47;10.40;99.90
5842;DHT22;2947;52.276;9.946;2022-12-26T04:54:13;10.40;99.90
5842;DHT22;2947;52.276;9.946;2022-12-26T04:56:39;10.40;99.90
5842;DHT22;2947;52.276;9.946;2022-12-26T04:59:05;10.40;99.90
5842;DHT22;2947;52.276;9.946;2022-12-26T05:01:30;10.40;99.90
5842;DHT22;2947;52.276;9.946;2022-12-26T05:04:16;10.50;99.90
5842;DHT22;2947;52.276;9.946;2022-12-26T05:07:02;10.40;99.90
5842;DHT22;2947;52.276;9.946;2022-12-26T05:09:50;10.50;99.90
5842;DHT22;2947;52.276;9.946;2022-12-26T05:12:16;10.50;99.90
5842;DHT22;2947;52.276;9.946;2022-12-26T05:14:42;10.40;99.90
5842;DHT22;2947;52.276;9.946;2022-12-26T05:17:10;10.50;99.90
5842;DHT22;2947;52.276;9.946;2022-12-26T05:19:55;10.50;99.90
5842;DHT22;2947;52.276;9.946;2022-12-26T05:22:42;10.40;99.90
5842;DHT22;2947;52.276;9.946;2022-12-26T05:25:33;10.50;99.90
5842;DHT22;2947;52.276;9.946;2022-12-26T05:28:19;10.50;99.90
5842;DHT22;2947;52.276;9.946;2022-12-26T05:31:04;10.50;99.90
5842;DHT22;2947;52.276;9.946;2022-12-26T05:33:30;10.50;99.90
5842;DHT22;2947;52.276;9.946;2022-12-26T05:36:16;10.50;99.90
5842;DHT22;2947;52.276;9.946;2022-12-26T05:38:43;10.50;99.90
5842;DHT22;2947;52.276;9.946;2022-12-26T05:41:09;10.50;99.90
5842;DHT22;2947;52.276;9.946;2022-12-26T05:43:35;10.50;99.90
5842;DHT22;2947;52.276;9.946;2022-12-26T05:46:00;10.50;99.90
5842;DHT22;2947;52.276;9.946;2022-12-26T05:48:26;10.60;99.90
5842;DHT22;2947;52.276;9.946;2022-12-26T05:50:52;10.50;99.90
5842;DHT22;2947;52.276;9.946;2022-12-26T05:53:17;10.60;99.90
5842;DHT22;2947;52.276;9.946;2022-12-26T05:55:43;10.60;99.90
5842;DHT22;2947;52.276;9.946;2022-12-26T05:58:09;10.60;99.90
5842;DHT22;2947;52.276;9.946;2022-12-26T06:00:34;10.60;99.90
5842;DHT22;2947;52.276;9.946;2022-12-26T06:03:00;10.60;99.90
5842;DHT22;2947;52.276;9.946;2022-12-26T06:05:27;10.50;99.90
5842;DHT22;2947;52.276;9.946;2022-12-26T06:07:53;10.60;99.90
5842;DHT22;2947;52.276;9.946;2022-12-26T06:10:19;10.60;99.90
5842;DHT22;2947;52.276;9.946;2022-12-26T06:12:45;10.50;99.90
5842;DHT22;2947;52.276;9.946;2022-12-26T06:15:10;10.50;99.90
5842;DHT22;2947;52.276;9.946;2022-12-26T06:17:37;10.50;99.90
5842;DHT22;2947;52.276;9.946;2022-12-26T06:20:04;10.50;99.90
5842;DHT22;2947;52.276;9.946;2022-12-26T06:22:30;10.50;99.90
5842;DHT22;2947;52.276;9.946;2022-12-26T06:24:56;10.50;99.90
5842;DHT22;2947;52.276;9.946;2022-12-26T06:27:22;10.50;99.90
5842;DHT22;2947;52.276;9.946;2022-12-26T06:29:48;10.40;99.90
5842;DHT22;2947;52.276;9.946;2022-12-26T06:32:13;10.40;99.90
5842;DHT22;2947;52.276;9.946;2022-12-26T06:34:39;10.50;99.90
5842;DHT22;2947;52.276;9.946;2022-12-26T06:37:05;10.40;99.90
5842;DHT22;2947;52.276;9.946;2022-12-26T06:39:30;10.40;99.90
5842;DHT22;2947;52.276;9.946;2022-12-26T06:41:56;10.40;99.90
5842;DHT22;2947;52.276;9.946;2022-12-26T06:44:22;10.40;99.90
5842;DHT22;2947;52.276;9.946;2022-12-26T06:46:47;10.30;99.90
5842;DHT22;2947;52.276;9.946;2022-12-26T06:49:13;10.30;99.90
5842;DHT22;2947;52.276;9.946;2022-12-26T06:51:39;10.30;99.90
5842;DHT22;2947;52.276;9.946;2022-12-26T06:54:05;10.30;99.90
5842;DHT22;2947;52.276;9.946;2022-12-26T06:56:32;10.20;99.90
5842;DHT22;2947;52.276;9.946;2022-12-26T06:59:00;10.20;99.90
5842;DHT22;2947;52.276;9.946;2022-12-26T07:01:29;10.20;99.90
5842;DHT22;2947;52.276;9.946;2022-12-26T07:03:56;10.20;99.90
5842;DHT22;2947;52.276;9.946;2022-12-26T07:06:30;10.20;99.90
5842;DHT22;2947;52.276;9.946;2022-12-26T07:11:31;10.10;99.90
5842;DHT22;2947;52.276;9.946;2022-12-26T07:13:58;10.10;99.90
5842;DHT22;2947;52.276;9.946;2022-12-26T07:16:24;10.10;99.90
5842;DHT22;2947;52.276;9.946;2022-12-26T07:18:52;10.00;99.90
5842;DHT22;2947;52.276;9.946;2022-12-26T07:21:18;10.00;99.90
5842;DHT22;2947;52.276;9.946;2022-12-26T07:23:44;10.00;99.90
5842;DHT22;2947;52.276;9.946;2022-12-26T07:26:10;10.00;99.90
5842;DHT22;2947;52.276;9.946;2022-12-26T07:28:35;10.00;99.90
5842;DHT22;2947;52.276;9.946;2022-12-26T07:31:02;10.00;99.90
5842;DHT22;2947;52.276;9.946;2022-12-26T07:33:29;10.00;99.90
5842;DHT22;2947;52.276;9.946;2022-12-26T07:36:02;10.00;99.90
5842;DHT22;2947;52.276;9.946;2022-12-26T07:38:31;10.00;99.90
5842;DHT22;2947;52.276;9.946;2022-12-26T07:40:57;9.90;99.90
5842;DHT22;2947;52.276;9.946;2022-12-26T07:43:24;9.90;99.90
5842;DHT22;2947;52.276;9.946;2022-12-26T07:45:51;9.90;99.90
5842;DHT22;2947;52.276;9.946;2022-12-26T07:48:17;9.90;99.90
5842;DHT22;2947;52.276;9.946;2022-12-26T07:50:43;9.90;99.90
5842;DHT22;2947;52.276;9.946;2022-12-26T07:53:12;9.90;99.90
5842;DHT22;2947;52.276;9.946;2022-12-26T07:55:38;9.80;99.90
5842;DHT22;2947;52.276;9.946;2022-12-26T07:58:04;9.90;99.90
5842;DHT22;2947;52.276;9.946;2022-12-26T08:00:30;9.90;99.90
5842;DHT22;2947;52.276;9.946;2022-12-26T08:02:55;9.80;99.90
5842;DHT22;2947;52.276;9.946;2022-12-26T08:05:21;9.80;99.90
5842;DHT22;2947;52.276;9.946;2022-12-26T08:07:47;9.80;99.90
5842;DHT22;2947;52.276;9.946;2022-12-26T08:10:14;9.80;99.90
5842;DHT22;2947;52.276;9.946;2022-12-26T08:12:41;9.80;99.90
5842;DHT22;2947;52.276;9.946;2022-12-26T08:15:07;9.80;99.90
5842;DHT22;2947;52.276;9.946;2022-12-26T08:17:34;9.80;99.90
5842;DHT22;2947;52.276;9.946;2022-12-26T08:20:00;9.80;99.90
5842;DHT22;2947;52.276;9.946;2022-12-26T08:22:26;9.70;99.90
5842;DHT22;2947;52.276;9.946;2022-12-26T08:24:52;9.70;99.90
5842;DHT22;2947;52.276;9.946;2022-12-26T08:27:18;9.70;99.90
5842;DHT22;2947;52.276;9.946;2022-12-26T08:29:43;9.70;99.90
5842;DHT22;2947;52.276;9.946;2022-12-26T08:32:09;9.70;99.90
5842;DHT22;2947;52.276;9.946;2022-12-26T08:34:35;9.70;99.90
5842;DHT22;2947;52.276;9.946;2022-12-26T08:37:01;9.80;99.90
5842;DHT22;2947;52.276;9.946;2022-12-26T08:39:27;9.80;99.90
5842;DHT22;2947;52.276;9.946;2022-12-26T08:41:53;9.90;99.90
5842;DHT22;2947;52.276;9.946;2022-12-26T08:44:18;9.90;99.90
5842;DHT22;2947;52.276;9.946;2022-12-26T08:46:44;9.90;99.90
5842;DHT22;2947;52.276;9.946;2022-12-26T08:49:10;9.90;99.90
5842;DHT22;2947;52.276;9.946;2022-12-26T08:51:37;9.90;99.90
5842;DHT22;2947;52.276;9.946;2022-12-26T08:54:03;9.90;99.90
5842;DHT22;2947;52.276;9.946;2022-12-26T08:56:29;9.90;99.90
5842;DHT22;2947;52.276;9.946;2022-12-26T08:58:55;9.90;99.90
5842;DHT22;2947;52.276;9.946;2022-12-26T09:01:23;8.90;99.90
5842;DHT22;2947;52.276;9.946;2022-12-26T09:03:57;10.00;99.90
5842;DHT22;2947;52.276;9.946;2022-12-26T09:06:24;10.00;99.90
5842;DHT22;2947;52.276;9.946;2022-12-26T09:08:51;10.00;99.90
5842;DHT22;2947;52.276;9.946;2022-12-26T09:11:19;10.00;99.90
5842;DHT22;2947;52.276;9.946;2022-12-26T09:13:46;10.10;99.90
5842;DHT22;2947;52.276;9.946;2022-12-26T09:16:18;10.10;99.90
5842;DHT22;2947;52.276;9.946;2022-12-26T09:18:53;10.20;99.90
5842;DHT22;2947;52.276;9.946;2022-12-26T09:21:26;10.10;99.90
5842;DHT22;2947;52.276;9.946;2022-12-26T09:24:01;10.10;99.90
5842;DHT22;2947;52.276;9.946;2022-12-26T09:26:29;10.20;99.90
5842;DHT22;2947;52.276;9.946;2022-12-26T09:28:56;10.20;99.90
5842;DHT22;2947;52.276;9.946;2022-12-26T09:31:24;10.20;99.90
5842;DHT22;2947;52.276;9.946;2022-12-26T09:33:51;10.20;99.90
5842;DHT22;2947;52.276;9.946;2022-12-26T09:36:22;10.20;99.90
5842;DHT22;2947;52.276;9.946;2022-12-26T09:38:55;10.20;99.90
5842;DHT22;2947;52.276;9.946;2022-12-26T09:52:44;10.20;99.90
5842;DHT22;2947;52.276;9.946;2022-12-26T09:55:24;10.30;99.90
5842;DHT22;2947;52.276;9.946;2022-12-26T09:57:56;10.30;99.90
5842;DHT22;2947;52.276;9.946;2022-12-26T10:00:36;10.20;99.90
5842;DHT22;2947;52.276;9.946;2022-12-26T10:03:08;10.30;99.90
5842;DHT22;2947;52.276;9.946;2022-12-26T10:08:57;10.30;99.90
5842;DHT22;2947;52.276;9.946;2022-12-26T10:23:37;10.30;99.90
5842;DHT22;2947;52.276;9.946;2022-12-26T10:26:08;10.30;99.90
5842;DHT22;2947;52.276;9.946;2022-12-26T10:29:08;10.30;99.90
5842;DHT22;2947;52.276;9.946;2022-12-26T10:31:57;10.30;99.90
5842;DHT22;2947;52.276;9.946;2022-12-26T10:34:42;10.30;99.90
5842;DHT22;2947;52.276;9.946;2022-12-26T10:40:22;10.40;99.90
5842;DHT22;2947;52.276;9.946;2022-12-26T10:42:52;10.40;99.90
5842;DHT22;2947;52.276;9.946;2022-12-26T10:48:27;10.50;99.90
5842;DHT22;2947;52.276;9.946;2022-12-26T10:50:53;10.50;99.90
5842;DHT22;2947;52.276;9.946;2022-12-26T10:53:19;10.60;99.90
5842;DHT22;2947;52.276;9.946;2022-12-26T10:55:45;10.60;99.90
5842;DHT22;2947;52.276;9.946;2022-12-26T10:58:22;10.60;99.90
5842;DHT22;2947;52.276;9.946;2022-12-26T11:00:50;10.50;99.90
5842;DHT22;2947;52.276;9.946;2022-12-26T11:03:18;10.50;99.90
5842;DHT22;2947;52.276;9.946;2022-12-26T11:05:52;10.60;99.90
5842;DHT22;2947;52.276;9.946;2022-12-26T11:14:35;10.70;99.90
5842;DHT22;2947;52.276;9.946;2022-12-26T11:17:11;10.70;99.90
5842;DHT22;2947;52.276;9.946;2022-12-26T11:19:42;10.70;99.90
5842;DHT22;2947;52.276;9.946;2022-12-26T11:22:28;10.70;99.90
5842;DHT22;2947;52.276;9.946;2022-12-26T11:27:40;10.90;99.90
5842;DHT22;2947;52.276;9.946;2022-12-26T11:32:44;10.90;99.90
5842;DHT22;2947;52.276;9.946;2022-12-26T11:35:23;10.90;99.90
5842;DHT22;2947;52.276;9.946;2022-12-26T11:37:56;10.90;99.90
5842;DHT22;2947;52.276;9.946;2022-12-26T11:40:35;10.90;99.90
5842;DHT22;2947;52.276;9.946;2022-12-26T11:43:05;11.00;99.90
5842;DHT22;2947;52.276;9.946;2022-12-26T11:45:37;11.00;99.90
5842;DHT22;2947;52.276;9.946;2022-12-26T11:48:17;11.00;99.90
5842;DHT22;2947;52.276;9.946;2022-12-26T11:50:46;10.90;99.90
5842;DHT22;2947;52.276;9.946;2022-12-26T11:53:17;11.00;99.90
5842;DHT22;2947;52.276;9.946;2022-12-26T11:55:45;10.90;99.90
5842;DHT22;2947;52.276;9.946;2022-12-26T11:58:28;10.90;99.90
5842;DHT22;2947;52.276;9.946;2022-12-26T12:11:15;10.90;64.90
5842;DHT22;2947;52.276;9.946;2022-12-26T12:17:12;11.00;55.20
5842;DHT22;2947;52.276;9.946;2022-12-26T12:26:00;10.90;56.40
5842;DHT22;2947;52.276;9.946;2022-12-26T12:28:41;10.90;70.00
5842;DHT22;2947;52.276;9.946;2022-12-26T12:31:36;10.90;72.30
5842;DHT22;2947;52.276;9.946;2022-12-26T12:40:02;10.90;80.60
5842;DHT22;2947;52.276;9.946;2022-12-26T12:46:08;10.90;84.50
5842;DHT22;2947;52.276;9.946;2022-12-26T12:52:37;10.90;70.70
5842;DHT22;2947;52.276;9.946;2022-12-26T12:57:49;10.80;81.70
5842;DHT22;2947;52.276;9.946;2022-12-26T13:00:20;10.80;75.40
5842;DHT22;2947;52.276;9.946;2022-12-26T13:08:49;10.90;68.70
5842;DHT22;2947;52.276;9.946;2022-12-26T13:11:40;10.90;65.90
5842;DHT22;2947;52.276;9.946;2022-12-26T13:14:26;10.90;60.80
5842;DHT22;2947;52.276;9.946;2022-12-26T13:17:06;10.90;47.00
5842;DHT22;2947;52.276;9.946;2022-12-26T13:20:04;11.00;54.20
5842;DHT22;2947;52.276;9.946;2022-12-26T13:22:44;11.00;47.30
5842;DHT22;2947;52.276;9.946;2022-12-26T13:25:35;11.00;41.10
5842;DHT22;2947;52.276;9.946;2022-12-26T13:28:09;11.00;34.00
5842;DHT22;2947;52.276;9.946;2022-12-26T13:30:38;11.00;39.00
5842;DHT22;2947;52.276;9.946;2022-12-26T13:33:04;11.00;30.60
5842;DHT22;2947;52.276;9.946;2022-12-26T13:38:23;11.00;28.00
5842;DHT22;2947;52.276;9.946;2022-12-26T13:40:59;11.00;26.40
5842;DHT22;2947;52.276;9.946;2022-12-26T13:46:53;11.00;19.60
5842;DHT22;2947;52.276;9.946;2022-12-26T13:49:37;11.00;19.50
5842;DHT22;2947;52.276;9.946;2022-12-26T14:00:39;10.90;15.40
5842;DHT22;2947;52.276;9.946;2022-12-26T14:09:18;10.80;99.90
5842;DHT22;2947;52.276;9.946;2022-12-26T14:12:11;10.70;99.90
5842;DHT22;2947;52.276;9.946;2022-12-26T14:15:18;10.60;99.90
5842;DHT22;2947;52.276;9.946;2022-12-26T14:20:40;10.10;99.90
5842;DHT22;2947;52.276;9.946;2022-12-26T14:23:27;10.00;99.90
5842;DHT22;2947;52.276;9.946;2022-12-26T14:29:25;9.80;99.90
5842;DHT22;2947;52.276;9.946;2022-12-26T14:38:50;9.60;99.90
5842;DHT22;2947;52.276;9.946;2022-12-26T14:41:23;9.60;99.90
5842;DHT22;2947;52.276;9.946;2022-12-26T14:47:03;9.50;99.90
5842;DHT22;2947;52.276;9.946;2022-12-26T14:52:31;9.40;99.90
5842;DHT22;2947;52.276;9.946;2022-12-26T14:55:44;9.30;99.90
5842;DHT22;2947;52.276;9.946;2022-12-26T15:32:53;8.20;99.90
5842;DHT22;2947;52.276;9.946;2022-12-26T15:35:46;8.10;99.90
5842;DHT22;2947;52.276;9.946;2022-12-26T15:47:47;7.90;67.50
5842;DHT22;2947;52.276;9.946;2022-12-26T15:50:32;7.80;67.60
5842;DHT22;2947;52.276;9.946;2022-12-26T16:05:39;7.50;30.10
5842;DHT22;2947;52.276;9.946;2022-12-26T16:11:19;7.40;41.40
5842;DHT22;2947;52.276;9.946;2022-12-26T16:13:59;7.30;39.60
5842;DHT22;2947;52.276;9.946;2022-12-26T16:16:32;7.30;32.70
5842;DHT22;2947;52.276;9.946;2022-12-26T16:19:17;7.20;36.90
5842;DHT22;2947;52.276;9.946;2022-12-26T16:21:59;7.20;26.90
5842;DHT22;2947;52.276;9.946;2022-12-26T16:24:45;7.20;31.60
5842;DHT22;2947;52.276;9.946;2022-12-26T16:27:15;7.20;42.40
5842;DHT22;2947;52.276;9.946;2022-12-26T16:29:49;7.10;43.80
5842;DHT22;2947;52.276;9.946;2022-12-26T16:32:20;7.10;48.70
5842;DHT22;2947;52.276;9.946;2022-12-26T16:34:47;7.00;47.90
5842;DHT22;2947;52.276;9.946;2022-12-26T16:37:20;7.00;39.70
5842;DHT22;2947;52.276;9.946;2022-12-26T16:40:37;7.00;51.70
5842;DHT22;2947;52.276;9.946;2022-12-26T16:45:39;6.90;49.90
5842;DHT22;2947;52.276;9.946;2022-12-26T16:48:07;7.00;44.10
5842;DHT22;2947;52.276;9.946;2022-12-26T16:50:36;6.90;49.80
5842;DHT22;2947;52.276;9.946;2022-12-26T16:53:16;6.90;42.40
5842;DHT22;2947;52.276;9.946;2022-12-26T16:55:57;6.90;36.80
5842;DHT22;2947;52.276;9.946;2022-12-26T16:58:40;6.80;34.10
5842;DHT22;2947;52.276;9.946;2022-12-26T17:01:08;6.80;44.90
5842;DHT22;2947;52.276;9.946;2022-12-26T17:03:47;6.70;31.60
5842;DHT22;2947;52.276;9.946;2022-12-26T17:06:21;6.70;30.50
5842;DHT22;2947;52.276;9.946;2022-12-26T17:08:50;6.60;26.30
5842;DHT22;2947;52.276;9.946;2022-12-26T17:11:17;6.60;23.60
5842;DHT22;2947;52.276;9.946;2022-12-26T17:13:52;6.60;23.40
5842;DHT22;2947;52.276;9.946;2022-12-26T17:16:25;6.50;22.60
5842;DHT22;2947;52.276;9.946;2022-12-26T17:19:18;6.40;21.70
5842;DHT22;2947;52.276;9.946;2022-12-26T17:24:47;6.30;24.40
5842;DHT22;2947;52.276;9.946;2022-12-26T17:27:21;6.20;23.30
5842;DHT22;2947;52.276;9.946;2022-12-26T17:30:18;6.20;17.90
5842;DHT22;2947;52.276;9.946;2022-12-26T17:32:54;6.10;14.40
5842;DHT22;2947;52.276;9.946;2022-12-26T17:35:25;6.10;3.70
5842;DHT22;2947;52.276;9.946;2022-12-26T17:37:58;6.00;1.00
5842;DHT22;2947;52.276;9.946;2022-12-26T17:40:32;6.00;1.00
5842;DHT22;2947;52.276;9.946;2022-12-26T17:45:41;5.90;1.00
5842;DHT22;2947;52.276;9.946;2022-12-26T17:48:09;5.90;1.00
5842;DHT22;2947;52.276;9.946;2022-12-26T17:50:37;5.80;1.00
5842;DHT22;2947;52.276;9.946;2022-12-26T17:55:59;5.70;7.10
5842;DHT22;2947;52.276;9.946;2022-12-26T17:58:33;5.70;5.70
5842;DHT22;2947;52.276;9.946;2022-12-26T18:00:59;5.60;5.10
5842;DHT22;2947;52.276;9.946;2022-12-26T18:03:25;5.60;4.10
5842;DHT22;2947;52.276;9.946;2022-12-26T18:05:52;5.60;6.90
5842;DHT22;2947;52.276;9.946;2022-12-26T18:08:23;5.60;1.70
5842;DHT22;2947;52.276;9.946;2022-12-26T18:10:51;5.50;1.00
5842;DHT22;2947;52.276;9.946;2022-12-26T18:13:17;5.50;1.00
5842;DHT22;2947;52.276;9.946;2022-12-26T18:15:43;5.50;1.00
5842;DHT22;2947;52.276;9.946;2022-12-26T18:18:34;5.50;4.40
5842;DHT22;2947;52.276;9.946;2022-12-26T18:21:03;5.40;2.20
5842;DHT22;2947;52.276;9.946;2022-12-26T18:23:30;5.40;5.50
5842;DHT22;2947;52.276;9.946;2022-12-26T18:25:58;5.30;8.60
5842;DHT22;2947;52.276;9.946;2022-12-26T18:28:26;5.30;12.20
5842;DHT22;2947;52.276;9.946;2022-12-26T18:30:52;5.30;10.30
5842;DHT22;2947;52.276;9.946;2022-12-26T18:33:19;5.20;8.40
5842;DHT22;2947;52.276;9.946;2022-12-26T18:35:45;5.20;10.60
5842;DHT22;2947;52.276;9.946;2022-12-26T18:38:19;5.20;15.20
5842;DHT22;2947;52.276;9.946;2022-12-26T18:40:48;5.20;7.60
5842;DHT22;2947;52.276;9.946;2022-12-26T18:43:17;5.10;5.90
5842;DHT22;2947;52.276;9.946;2022-12-26T18:45:43;5.10;5.40
5842;DHT22;2947;52.276;9.946;2022-12-26T18:48:14;5.10;8.20
5842;DHT22;2947;52.276;9.946;2022-12-26T18:50:41;5.00;3.60
5842;DHT22;2947;52.276;9.946;2022-12-26T18:53:07;5.00;7.80
5842;DHT22;2947;52.276;9.946;2022-12-26T18:55:33;5.00;13.70
5842;DHT22;2947;52.276;9.946;2022-12-26T18:57:59;5.00;13.80
5842;DHT22;2947;52.276;9.946;2022-12-26T19:00:24;5.00;12.60
5842;DHT22;2947;52.276;9.946;2022-12-26T19:02:50;4.90;15.50
5842;DHT22;2947;52.276;9.946;2022-12-26T19:05:22;5.00;14.80
5842;DHT22;2947;52.276;9.946;2022-12-26T19:07:50;4.90;14.60
5842;DHT22;2947;52.276;9.946;2022-12-26T19:10:19;4.80;13.60
5842;DHT22;2947;52.276;9.946;2022-12-26T19:12:46;4.90;21.60
5842;DHT22;2947;52.276;9.946;2022-12-26T19:15:13;4.90;26.30
5842;DHT22;2947;52.276;9.946;2022-12-26T19:17:40;4.80;17.90
5842;DHT22;2947;52.276;9.946;2022-12-26T19:20:30;4.70;16.50
5842;DHT22;2947;52.276;9.946;2022-12-26T19:22:55;4.70;19.70
5842;DHT22;2947;52.276;9.946;2022-12-26T19:25:23;4.70;20.50
5842;DHT22;2947;52.276;9.946;2022-12-26T19:27:49;4.60;19.20
5842;DHT22;2947;52.276;9.946;2022-12-26T19:30:16;4.60;22.20
5842;DHT22;2947;52.276;9.946;2022-12-26T19:32:43;4.60;30.50
5842;DHT22;2947;52.276;9.946;2022-12-26T19:35:10;4.60;23.90
5842;DHT22;2947;52.276;9.946;2022-12-26T19:37:36;4.50;28.90
5842;DHT22;2947;52.276;9.946;2022-12-26T19:40:03;4.50;28.00
5842;DHT22;2947;52.276;9.946;2022-12-26T19:42:29;4.50;26.20
5842;DHT22;2947;52.276;9.946;2022-12-26T19:44:58;4.50;27.80
5842;DHT22;2947;52.276;9.946;2022-12-26T19:47:23;4.50;27.00
5842;DHT22;2947;52.276;9.946;2022-12-26T19:49:49;4.50;33.30
5842;DHT22;2947;52.276;9.946;2022-12-26T19:52:15;4.40;34.20
5842;DHT22;2947;52.276;9.946;2022-12-26T19:54:40;4.40;34.90
5842;DHT22;2947;52.276;9.946;2022-12-26T19:57:06;4.50;39.70
5842;DHT22;2947;52.276;9.946;2022-12-26T19:59:32;4.40;36.30
5842;DHT22;2947;52.276;9.946;2022-12-26T20:01:58;4.40;45.00
5842;DHT22;2947;52.276;9.946;2022-12-26T20:04:24;4.40;51.80
5842;DHT22;2947;52.276;9.946;2022-12-26T20:06:49;4.40;55.90
5842;DHT22;2947;52.276;9.946;2022-12-26T20:09:15;4.30;55.50
5842;DHT22;2947;52.276;9.946;2022-12-26T20:11:44;4.30;57.00
5842;DHT22;2947;52.276;9.946;2022-12-26T20:14:18;4.30;58.10
5842;DHT22;2947;52.276;9.946;2022-12-26T20:16:45;4.30;64.80
5842;DHT22;2947;52.276;9.946;2022-12-26T20:19:20;4.30;71.90
5842;DHT22;2947;52.276;9.946;2022-12-26T20:21:46;4.30;75.60
5842;DHT22;2947;52.276;9.946;2022-12-26T20:24:12;4.30;83.30
5842;DHT22;2947;52.276;9.946;2022-12-26T20:26:39;4.30;82.80
5842;DHT22;2947;52.276;9.946;2022-12-26T20:29:06;4.30;85.90
5842;DHT22;2947;52.276;9.946;2022-12-26T20:31:33;4.30;85.40
5842;DHT22;2947;52.276;9.946;2022-12-26T20:34:01;4.30;90.70
5842;DHT22;2947;52.276;9.946;2022-12-26T20:36:30;4.30;92.00
5842;DHT22;2947;52.276;9.946;2022-12-26T20:38:59;4.30;94.70
5842;DHT22;2947;52.276;9.946;2022-12-26T20:41:26;4.20;98.60
5842;DHT22;2947;52.276;9.946;2022-12-26T20:43:53;4.20;99.90
5842;DHT22;2947;52.276;9.946;2022-12-26T20:46:27;4.20;99.90
5842;DHT22;2947;52.276;9.946;2022-12-26T20:48:56;4.20;99.90
5842;DHT22;2947;52.276;9.946;2022-12-26T20:51:25;4.10;99.90
5842;DHT22;2947;52.276;9.946;2022-12-26T20:53:52;4.10;99.90